sensor_id;sensor_type;location;lat;lon;timestamp;pressure;altitude;pressure_sealevel;temperature;humidity
13968;BME280;39536;52.198;9.920;2023-08-06T00:01:15;99898.72;;;17.41;100.00
13968;BME280;39536;52.198;9.920;2023-08-06T00:03:44;99900.31;;;17.44;100.00
13968;BME280;39536;52.198;9.920;2023-08-06T00:06:12;99892.81;;;17.50;100.00
13968;BME280;39536;52.198;9.920;2023-08-06T00:08:38;99891.66;;;17.54;100.00
13968;BME280;39536;52.198;9.920;2023-08-06T00:11:05;99887.53;;;17.50;100.00
13968;BME280;39536;52.198;9.920;2023-08-06T00:13:31;99881.22;;;17.53;100.00
13968;BME280;39536;52.198;9.920;2023-08-06T00:16:08;99879.31;;;17.55;100.00
13968;BME280;39536;52.198;9.920;2023-08-06T00:18:35;99870.47;;;17.56;100.00
13968;BME280;39536;52.198;9.920;2023-08-06T00:21:02;99864.13;;;17.59;100.00
13968;BME280;39536;52.198;9.920;2023-08-06T00:23:30;99857.69;;;17.63;100.00
13968;BME280;39536;52.198;9.920;2023-08-06T00:25:57;99861.78;;;17.67;100.00
13968;BME280;39536;52.198;9.920;2023-08-06T00:28:23;99865.34;;;17.66;100.00
13968;BME280;39536;52.198;9.920;2023-08-06T00:30:52;99855.94;;;17.74;100.00
13968;BME280;39536;52.198;9.920;2023-08-06T00:33:21;99862.69;;;17.78;100.00
13968;BME280;39536;52.198;9.920;2023-08-06T00:35:47;99852.81;;;17.82;100.00
13968;BME280;39536;52.198;9.920;2023-08-06T00:38:14;99841.81;;;17.75;100.00
13968;BME280;39536;52.198;9.920;2023-08-06T00:40:42;99842.16;;;17.71;100.00
13968;BME280;39536;52.198;9.920;2023-08-06T00:43:09;99836.28;;;17.67;100.00
13968;BME280;39536;52.198;9.920;2023-08-06T00:45:36;99831.91;;;17.55;100.00
13968;BME280;39536;52.198;9.920;2023-08-06T00:48:05;99830.03;;;17.57;100.00
13968;BME280;39536;52.198;9.920;2023-08-06T00:50:32;99824.97;;;17.54;100.00
13968;BME280;39536;52.198;9.920;2023-08-06T00:52:59;99823.94;;;17.44;100.00
13968;BME280;39536;52.198;9.920;2023-08-06T00:55:26;99823.00;;;17.45;100.00
13968;BME280;39536;52.198;9.920;2023-08-06T00:57:55;99824.22;;;17.28;100.00
13968;BME280;39536;52.198;9.920;2023-08-06T01:00:22;99815.63;;;17.13;100.00
13968;BME280;39536;52.198;9.920;2023-08-06T01:02:50;99817.19;;;17.16;100.00
13968;BME280;39536;52.198;9.920;2023-08-06T01:05:17;99819.44;;;17.09;100.00
13968;BME280;39536;52.198;9.920;2023-08-06T01:07:51;99819.34;;;17.11;100.00
13968;BME280;39536;52.198;9.920;2023-08-06T01:10:29;99811.63;;;17.20;100.00
13968;BME280;39536;52.198;9.920;2023-08-06T01:13:03;99807.06;;;17.22;100.00
13968;BME280;39536;52.198;9.920;2023-08-06T01:15:36;99808.91;;;17.09;100.00
13968;BME280;39536;52.198;9.920;2023-08-06T01:18:06;99811.88;;;17.04;100.00
13968;BME280;39536;52.198;9.920;2023-08-06T01:20:34;99806.84;;;17.01;100.00
13968;BME280;39536;52.198;9.920;2023-08-06T01:23:03;99801.34;;;17.04;100.00
13968;BME280;39536;52.198;9.920;2023-08-06T01:25:33;99801.56;;;17.01;100.00
13968;BME280;39536;52.198;9.920;2023-08-06T01:28:04;99795.56;;;16.99;100.00
13968;BME280;39536;52.198;9.920;2023-08-06T01:30:32;99795.69;;;16.98;100.00
13968;BME280;39536;52.198;9.920;2023-08-06T01:33:04;99794.19;;;16.94;100.00
13968;BME280;39536;52.198;9.920;2023-08-06T01:35:31;99796.53;;;16.98;100.00
13968;BME280;39536;52.198;9.920;2023-08-06T01:38:00;99787.78;;;16.98;100.00
13968;BME280;39536;52.198;9.920;2023-08-06T01:40:27;99785.78;;;17.01;100.00
13968;BME280;39536;52.198;9.920;2023-08-06T01:42:54;99784.59;;;17.05;100.00
13968;BME280;39536;52.198;9.920;2023-08-06T01:45:21;99780.91;;;17.08;100.00
13968;BME280;39536;52.198;9.920;2023-08-06T01:47:48;99773.03;;;17.08;100.00
13968;BME280;39536;52.198;9.920;2023-08-06T01:50:15;99766.91;;;17.07;100.00
13968;BME280;39536;52.198;9.920;2023-08-06T01:52:41;99775.03;;;17.04;100.00
13968;BME280;39536;52.198;9.920;2023-08-06T01:55:09;99770.31;;;16.97;100.00
13968;BME280;39536;52.198;9.920;2023-08-06T01:57:36;99772.31;;;16.93;100.00
13968;BME280;39536;52.198;9.920;2023-08-06T02:00:03;99760.31;;;17.02;100.00
13968;BME280;39536;52.198;9.920;2023-08-06T02:02:30;99762.72;;;17.05;100.00
13968;BME280;39536;52.198;9.920;2023-08-06T02:04:56;99754.44;;;16.98;100.00
13968;BME280;39536;52.198;9.920;2023-08-06T02:07:24;99759.56;;;17.00;100.00
13968;BME280;39536;52.198;9.920;2023-08-06T02:09:51;99758.63;;;17.01;100.00
13968;BME280;39536;52.198;9.920;2023-08-06T02:12:19;99762.41;;;16.97;100.00
13968;BME280;39536;52.198;9.920;2023-08-06T02:14:45;99769.69;;;16.93;100.00
13968;BME280;39536;52.198;9.920;2023-08-06T02:17:12;99766.00;;;16.96;100.00
13968;BME280;39536;52.198;9.920;2023-08-06T02:19:39;99770.69;;;17.03;100.00
13968;BME280;39536;52.198;9.920;2023-08-06T02:22:05;99766.78;;;17.09;100.00
13968;BME280;39536;52.198;9.920;2023-08-06T02:24:32;99761.84;;;17.17;100.00
13968;BME280;39536;52.198;9.920;2023-08-06T02:26:59;99768.38;;;17.12;100.00
13968;BME280;39536;52.198;9.920;2023-08-06T02:29:27;99759.25;;;17.04;100.00
13968;BME280;39536;52.198;9.920;2023-08-06T02:31:53;99756.19;;;17.11;100.00
13968;BME280;39536;52.198;9.920;2023-08-06T02:34:20;99757.09;;;17.09;100.00
13968;BME280;39536;52.198;9.920;2023-08-06T02:36:47;99760.19;;;17.03;100.00
13968;BME280;39536;52.198;9.920;2023-08-06T02:39:14;99746.72;;;17.08;100.00
13968;BME280;39536;52.198;9.920;2023-08-06T02:41:40;99736.88;;;17.10;100.00
13968;BME280;39536;52.198;9.920;2023-08-06T02:44:07;99738.38;;;17.14;100.00
13968;BME280;39536;52.198;9.920;2023-08-06T02:46:35;99733.81;;;17.16;100.00
13968;BME280;39536;52.198;9.920;2023-08-06T02:49:02;99721.28;;;17.20;100.00
13968;BME280;39536;52.198;9.920;2023-08-06T02:51:28;99725.59;;;17.21;100.00
13968;BME280;39536;52.198;9.920;2023-08-06T02:53:55;99718.66;;;17.20;100.00
13968;BME280;39536;52.198;9.920;2023-08-06T02:56:22;99714.84;;;17.24;100.00
13968;BME280;39536;52.198;9.920;2023-08-06T02:58:48;99710.31;;;17.26;100.00
13968;BME280;39536;52.198;9.920;2023-08-06T03:01:15;99720.22;;;17.22;100.00
13968;BME280;39536;52.198;9.920;2023-08-06T03:03:43;99705.81;;;17.15;100.00
13968;BME280;39536;52.198;9.920;2023-08-06T03:06:10;99704.25;;;17.13;100.00
13968;BME280;39536;52.198;9.920;2023-08-06T03:08:36;99699.66;;;17.03;100.00
13968;BME280;39536;52.198;9.920;2023-08-06T03:11:03;99695.34;;;17.02;100.00
13968;BME280;39536;52.198;9.920;2023-08-06T03:13:30;99686.72;;;17.00;100.00
13968;BME280;39536;52.198;9.920;2023-08-06T03:15:58;99692.84;;;17.01;100.00
13968;BME280;39536;52.198;9.920;2023-08-06T03:18:25;99686.63;;;17.02;100.00
13968;BME280;39536;52.198;9.920;2023-08-06T03:20:54;99687.00;;;17.08;100.00
13968;BME280;39536;52.198;9.920;2023-08-06T03:23:20;99685.22;;;17.09;100.00
13968;BME280;39536;52.198;9.920;2023-08-06T03:25:47;99684.38;;;17.08;100.00
13968;BME280;39536;52.198;9.920;2023-08-06T03:28:14;99674.38;;;17.14;100.00
13968;BME280;39536;52.198;9.920;2023-08-06T03:30:40;99672.34;;;17.17;100.00
13968;BME280;39536;52.198;9.920;2023-08-06T03:33:07;99672.22;;;17.19;100.00
13968;BME280;39536;52.198;9.920;2023-08-06T03:35:34;99675.47;;;17.22;100.00
13968;BME280;39536;52.198;9.920;2023-08-06T03:38:02;99688.53;;;17.24;100.00
13968;BME280;39536;52.198;9.920;2023-08-06T03:40:29;99675.88;;;17.05;100.00
13968;BME280;39536;52.198;9.920;2023-08-06T03:42:55;99678.19;;;16.85;100.00
13968;BME280;39536;52.198;9.920;2023-08-06T03:45:22;99677.97;;;16.89;100.00
13968;BME280;39536;52.198;9.920;2023-08-06T03:47:49;99683.00;;;16.92;100.00
13968;BME280;39536;52.198;9.920;2023-08-06T03:50:15;99672.06;;;16.85;100.00
13968;BME280;39536;52.198;9.920;2023-08-06T03:52:42;99679.63;;;16.90;100.00
13968;BME280;39536;52.198;9.920;2023-08-06T03:55:10;99676.03;;;16.91;100.00
13968;BME280;39536;52.198;9.920;2023-08-06T03:57:37;99671.28;;;16.96;100.00
13968;BME280;39536;52.198;9.920;2023-08-06T04:00:04;99664.63;;;17.03;100.00
13968;BME280;39536;52.198;9.920;2023-08-06T04:02:31;99664.38;;;17.06;100.00
13968;BME280;39536;52.198;9.920;2023-08-06T04:04:58;99660.81;;;17.07;100.00
13968;BME280;39536;52.198;9.920;2023-08-06T04:07:25;99658.66;;;17.01;100.00
13968;BME280;39536;52.198;9.920;2023-08-06T04:09:53;99650.97;;;16.98;100.00
13968;BME280;39536;52.198;9.920;2023-08-06T04:12:21;99648.91;;;16.90;100.00
13968;BME280;39536;52.198;9.920;2023-08-06T04:14:49;99656.72;;;16.79;100.00
13968;BME280;39536;52.198;9.920;2023-08-06T04:17:16;99660.94;;;16.69;100.00
13968;BME280;39536;52.198;9.920;2023-08-06T04:19:46;99665.63;;;16.52;100.00
13968;BME280;39536;52.198;9.920;2023-08-06T04:22:12;99662.19;;;16.39;100.00
13968;BME280;39536;52.198;9.920;2023-08-06T04:24:39;99661.31;;;16.38;100.00
13968;BME280;39536;52.198;9.920;2023-08-06T04:27:06;99655.88;;;16.29;100.00
13968;BME280;39536;52.198;9.920;2023-08-06T04:29:34;99647.50;;;16.24;100.00
13968;BME280;39536;52.198;9.920;2023-08-06T04:32:01;99658.09;;;16.22;100.00
13968;BME280;39536;52.198;9.920;2023-08-06T04:34:28;99658.41;;;16.30;100.00
13968;BME280;39536;52.198;9.920;2023-08-06T04:36:54;99666.50;;;16.40;100.00
13968;BME280;39536;52.198;9.920;2023-08-06T04:39:21;99665.22;;;16.46;100.00
13968;BME280;39536;52.198;9.920;2023-08-06T04:41:48;99656.91;;;16.52;100.00
13968;BME280;39536;52.198;9.920;2023-08-06T04:44:14;99652.78;;;16.60;100.00
13968;BME280;39536;52.198;9.920;2023-08-06T04:46:43;99663.69;;;16.67;100.00
13968;BME280;39536;52.198;9.920;2023-08-06T04:49:09;99673.78;;;16.73;100.00
13968;BME280;39536;52.198;9.920;2023-08-06T04:51:36;99675.53;;;16.73;100.00
13968;BME280;39536;52.198;9.920;2023-08-06T04:54:03;99665.00;;;16.73;100.00
13968;BME280;39536;52.198;9.920;2023-08-06T04:56:29;99674.19;;;16.80;100.00
13968;BME280;39536;52.198;9.920;2023-08-06T04:58:57;99672.69;;;16.89;100.00
13968;BME280;39536;52.198;9.920;2023-08-06T05:01:24;99672.47;;;16.92;100.00
13968;BME280;39536;52.198;9.920;2023-08-06T05:03:52;99665.41;;;16.92;100.00
13968;BME280;39536;52.198;9.920;2023-08-06T05:06:19;99670.31;;;16.97;100.00
13968;BME280;39536;52.198;9.920;2023-08-06T05:08:46;99669.84;;;16.92;100.00
13968;BME280;39536;52.198;9.920;2023-08-06T05:11:12;99673.63;;;16.88;100.00
13968;BME280;39536;52.198;9.920;2023-08-06T05:13:39;99664.59;;;16.92;100.00
13968;BME280;39536;52.198;9.920;2023-08-06T05:16:06;99663.09;;;16.88;100.00
13968;BME280;39536;52.198;9.920;2023-08-06T05:18:32;99661.97;;;16.79;100.00
13968;BME280;39536;52.198;9.920;2023-08-06T05:21:01;99662.28;;;16.74;100.00
13968;BME280;39536;52.198;9.920;2023-08-06T05:23:28;99665.69;;;16.76;100.00
13968;BME280;39536;52.198;9.920;2023-08-06T05:25:54;99666.69;;;16.87;100.00
13968;BME280;39536;52.198;9.920;2023-08-06T05:28:21;99673.31;;;16.92;100.00
13968;BME280;39536;52.198;9.920;2023-08-06T05:30:48;99662.66;;;16.94;100.00
13968;BME280;39536;52.198;9.920;2023-08-06T05:33:14;99664.59;;;16.92;100.00
13968;BME280;39536;52.198;9.920;2023-08-06T05:35:41;99659.94;;;16.95;100.00
13968;BME280;39536;52.198;9.920;2023-08-06T05:38:09;99661.28;;;17.01;100.00
13968;BME280;39536;52.198;9.920;2023-08-06T05:40:36;99665.34;;;17.05;100.00
13968;BME280;39536;52.198;9.920;2023-08-06T05:43:02;99659.66;;;17.11;100.00
13968;BME280;39536;52.198;9.920;2023-08-06T05:45:29;99661.59;;;17.20;100.00
13968;BME280;39536;52.198;9.920;2023-08-06T05:47:56;99662.06;;;17.25;100.00
13968;BME280;39536;52.198;9.920;2023-08-06T05:50:24;99665.81;;;17.23;100.00
13968;BME280;39536;52.198;9.920;2023-08-06T05:52:50;99664.47;;;17.28;100.00
13968;BME280;39536;52.198;9.920;2023-08-06T05:55:19;99664.53;;;17.40;100.00
13968;BME280;39536;52.198;9.920;2023-08-06T05:57:46;99659.53;;;17.48;100.00
13968;BME280;39536;52.198;9.920;2023-08-06T06:00:13;99658.09;;;17.55;100.00
13968;BME280;39536;52.198;9.920;2023-08-06T06:02:40;99644.59;;;17.71;100.00
13968;BME280;39536;52.198;9.920;2023-08-06T06:05:07;99652.19;;;17.87;100.00
13968;BME280;39536;52.198;9.920;2023-08-06T06:07:34;99641.91;;;17.84;100.00
13968;BME280;39536;52.198;9.920;2023-08-06T06:10:01;99633.69;;;17.75;100.00
13968;BME280;39536;52.198;9.920;2023-08-06T06:12:29;99634.97;;;17.83;100.00
13968;BME280;39536;52.198;9.920;2023-08-06T06:14:56;99635.31;;;17.89;100.00
13968;BME280;39536;52.198;9.920;2023-08-06T06:17:22;99646.13;;;17.97;100.00
13968;BME280;39536;52.198;9.920;2023-08-06T06:19:49;99644.19;;;17.99;100.00
13968;BME280;39536;52.198;9.920;2023-08-06T06:22:15;99641.56;;;17.88;100.00
13968;BME280;39536;52.198;9.920;2023-08-06T06:24:41;99641.44;;;17.90;100.00
13968;BME280;39536;52.198;9.920;2023-08-06T06:27:08;99640.69;;;17.88;100.00
13968;BME280;39536;52.198;9.920;2023-08-06T06:29:36;99642.63;;;17.97;100.00
13968;BME280;39536;52.198;9.920;2023-08-06T06:32:03;99641.06;;;18.06;100.00
13968;BME280;39536;52.198;9.920;2023-08-06T06:34:30;99641.91;;;18.06;100.00
13968;BME280;39536;52.198;9.920;2023-08-06T06:36:57;99640.00;;;18.08;100.00
13968;BME280;39536;52.198;9.920;2023-08-06T06:39:23;99634.84;;;18.18;100.00
13968;BME280;39536;52.198;9.920;2023-08-06T06:41:50;99639.13;;;18.19;100.00
13968;BME280;39536;52.198;9.920;2023-08-06T06:44:17;99638.41;;;18.28;100.00
13968;BME280;39536;52.198;9.920;2023-08-06T06:46:46;99630.50;;;18.39;100.00
13968;BME280;39536;52.198;9.920;2023-08-06T06:49:13;99626.06;;;18.40;100.00
13968;BME280;39536;52.198;9.920;2023-08-06T06:51:40;99625.59;;;18.35;100.00
13968;BME280;39536;52.198;9.920;2023-08-06T06:54:06;99625.59;;;18.35;100.00
13968;BME280;39536;52.198;9.920;2023-08-06T06:56:33;99621.75;;;18.39;100.00
13968;BME280;39536;52.198;9.920;2023-08-06T06:59:00;99625.00;;;18.42;100.00
13968;BME280;39536;52.198;9.920;2023-08-06T07:01:26;99621.59;;;18.63;100.00
13968;BME280;39536;52.198;9.920;2023-08-06T07:03:54;99617.16;;;18.63;100.00
13968;BME280;39536;52.198;9.920;2023-08-06T07:06:22;99612.59;;;18.77;100.00
13968;BME280;39536;52.198;9.920;2023-08-06T07:08:49;99611.09;;;18.84;100.00
13968;BME280;39536;52.198;9.920;2023-08-06T07:11:15;99603.28;;;18.93;100.00
13968;BME280;39536;52.198;9.920;2023-08-06T07:13:42;99608.28;;;18.97;100.00
13968;BME280;39536;52.198;9.920;2023-08-06T07:16:09;99603.97;;;19.07;100.00
13968;BME280;39536;52.198;9.920;2023-08-06T07:18:35;99616.50;;;19.14;100.00
13968;BME280;39536;52.198;9.920;2023-08-06T07:21:03;99609.75;;;19.22;100.00
13968;BME280;39536;52.198;9.920;2023-08-06T07:23:30;99613.31;;;19.32;100.00
13968;BME280;39536;52.198;9.920;2023-08-06T07:25:57;99618.25;;;19.46;100.00
13968;BME280;39536;52.198;9.920;2023-08-06T07:28:23;99605.09;;;19.56;100.00
13968;BME280;39536;52.198;9.920;2023-08-06T07:30:50;99606.34;;;19.73;100.00
13968;BME280;39536;52.198;9.920;2023-08-06T07:33:17;99602.09;;;19.81;100.00
13968;BME280;39536;52.198;9.920;2023-08-06T07:35:43;99600.00;;;19.85;100.00
13968;BME280;39536;52.198;9.920;2023-08-06T07:38:11;99597.59;;;19.72;100.00
13968;BME280;39536;52.198;9.920;2023-08-06T07:40:38;99607.25;;;19.41;100.00
13968;BME280;39536;52.198;9.920;2023-08-06T07:43:06;99602.66;;;19.43;100.00
13968;BME280;39536;52.198;9.920;2023-08-06T07:45:33;99616.59;;;19.45;100.00
13968;BME280;39536;52.198;9.920;2023-08-06T07:48:01;99607.81;;;19.24;100.00
13968;BME280;39536;52.198;9.920;2023-08-06T07:50:27;99605.91;;;19.26;100.00
13968;BME280;39536;52.198;9.920;2023-08-06T07:52:54;99615.50;;;19.48;100.00
13968;BME280;39536;52.198;9.920;2023-08-06T07:55:23;99606.47;;;19.50;100.00
13968;BME280;39536;52.198;9.920;2023-08-06T07:57:49;99607.69;;;19.67;100.00
13968;BME280;39536;52.198;9.920;2023-08-06T08:00:16;99604.88;;;19.90;100.00
13968;BME280;39536;52.198;9.920;2023-08-06T08:02:43;99596.44;;;20.05;100.00
13968;BME280;39536;52.198;9.920;2023-08-06T08:05:11;99592.69;;;19.98;100.00
13968;BME280;39536;52.198;9.920;2023-08-06T08:07:38;99592.00;;;20.06;100.00
13968;BME280;39536;52.198;9.920;2023-08-06T08:10:06;99587.22;;;19.90;100.00
13968;BME280;39536;52.198;9.920;2023-08-06T08:12:34;99588.69;;;19.73;100.00
13968;BME280;39536;52.198;9.920;2023-08-06T08:15:01;99586.41;;;19.69;100.00
13968;BME280;39536;52.198;9.920;2023-08-06T08:17:28;99594.22;;;19.49;100.00
13968;BME280;39536;52.198;9.920;2023-08-06T08:19:55;99593.88;;;19.64;100.00
13968;BME280;39536;52.198;9.920;2023-08-06T08:22:21;99597.13;;;19.46;100.00
13968;BME280;39536;52.198;9.920;2023-08-06T08:24:48;99598.44;;;19.61;100.00
13968;BME280;39536;52.198;9.920;2023-08-06T08:27:15;99596.91;;;19.80;100.00
13968;BME280;39536;52.198;9.920;2023-08-06T08:29:43;99598.47;;;19.82;100.00
13968;BME280;39536;52.198;9.920;2023-08-06T08:32:10;99592.03;;;19.75;100.00
13968;BME280;39536;52.198;9.920;2023-08-06T08:34:36;99588.72;;;19.83;100.00
13968;BME280;39536;52.198;9.920;2023-08-06T08:37:03;99593.06;;;19.63;100.00
13968;BME280;39536;52.198;9.920;2023-08-06T08:39:31;99596.41;;;19.65;100.00
13968;BME280;39536;52.198;9.920;2023-08-06T08:41:58;99593.22;;;19.92;100.00
13968;BME280;39536;52.198;9.920;2023-08-06T08:44:25;99584.25;;;20.14;100.00
13968;BME280;39536;52.198;9.920;2023-08-06T08:46:56;99587.47;;;20.37;100.00
13968;BME280;39536;52.198;9.920;2023-08-06T08:49:24;99581.44;;;20.56;100.00
13968;BME280;39536;52.198;9.920;2023-08-06T08:51:52;99578.66;;;20.58;100.00
13968;BME280;39536;52.198;9.920;2023-08-06T08:54:20;99588.81;;;20.62;100.00
13968;BME280;39536;52.198;9.920;2023-08-06T08:56:49;99578.81;;;20.75;100.00
13968;BME280;39536;52.198;9.920;2023-08-06T08:59:16;99583.75;;;20.49;100.00
13968;BME280;39536;52.198;9.920;2023-08-06T09:01:43;99571.63;;;20.37;100.00
13968;BME280;39536;52.198;9.920;2023-08-06T09:04:17;99577.44;;;20.31;100.00
13968;BME280;39536;52.198;9.920;2023-08-06T09:06:46;99578.88;;;20.35;100.00
13968;BME280;39536;52.198;9.920;2023-08-06T09:09:17;99577.81;;;20.57;100.00
13968;BME280;39536;52.198;9.920;2023-08-06T09:11:48;99573.25;;;20.79;100.00
13968;BME280;39536;52.198;9.920;2023-08-06T09:14:16;99578.09;;;21.03;100.00
13968;BME280;39536;52.198;9.920;2023-08-06T09:16:43;99581.72;;;21.11;100.00
13968;BME280;39536;52.198;9.920;2023-08-06T09:19:10;99568.16;;;21.24;100.00
13968;BME280;39536;52.198;9.920;2023-08-06T09:21:40;99571.13;;;21.40;100.00
13968;BME280;39536;52.198;9.920;2023-08-06T09:24:10;99569.28;;;21.51;100.00
13968;BME280;39536;52.198;9.920;2023-08-06T09:26:37;99566.88;;;21.57;100.00
13968;BME280;39536;52.198;9.920;2023-08-06T09:29:05;99571.50;;;21.45;100.00
13968;BME280;39536;52.198;9.920;2023-08-06T09:31:40;99563.28;;;21.39;100.00
13968;BME280;39536;52.198;9.920;2023-08-06T09:34:10;99560.78;;;21.18;100.00
13968;BME280;39536;52.198;9.920;2023-08-06T09:36:41;99566.38;;;21.15;100.00
13968;BME280;39536;52.198;9.920;2023-08-06T09:39:12;99570.56;;;21.08;100.00
13968;BME280;39536;52.198;9.920;2023-08-06T09:41:39;99572.22;;;21.48;100.00
13968;BME280;39536;52.198;9.920;2023-08-06T09:44:17;99571.38;;;21.84;100.00
13968;BME280;39536;52.198;9.920;2023-08-06T09:46:47;99563.53;;;21.92;100.00
13968;BME280;39536;52.198;9.920;2023-08-06T09:49:14;99564.69;;;21.80;100.00
13968;BME280;39536;52.198;9.920;2023-08-06T09:51:42;99563.19;;;21.78;100.00
13968;BME280;39536;52.198;9.920;2023-08-06T09:54:12;99564.84;;;21.79;100.00
13968;BME280;39536;52.198;9.920;2023-08-06T09:56:39;99548.09;;;21.78;100.00
13968;BME280;39536;52.198;9.920;2023-08-06T09:59:06;99557.31;;;21.84;100.00
13968;BME280;39536;52.198;9.920;2023-08-06T10:01:35;99558.56;;;21.80;100.00
13968;BME280;39536;52.198;9.920;2023-08-06T10:04:03;99553.88;;;21.64;100.00
13968;BME280;39536;52.198;9.920;2023-08-06T10:06:31;99544.06;;;21.37;100.00
13968;BME280;39536;52.198;9.920;2023-08-06T10:09:01;99545.56;;;21.30;100.00
13968;BME280;39536;52.198;9.920;2023-08-06T10:11:28;99541.78;;;21.52;100.00
13968;BME280;39536;52.198;9.920;2023-08-06T10:14:00;99546.16;;;21.71;100.00
13968;BME280;39536;52.198;9.920;2023-08-06T10:16:29;99539.09;;;21.61;100.00
13968;BME280;39536;52.198;9.920;2023-08-06T10:18:57;99542.28;;;21.75;100.00
13968;BME280;39536;52.198;9.920;2023-08-06T10:21:24;99526.69;;;21.89;100.00
13968;BME280;39536;52.198;9.920;2023-08-06T10:23:54;99529.78;;;21.85;100.00
13968;BME280;39536;52.198;9.920;2023-08-06T10:26:25;99521.78;;;22.22;100.00
13968;BME280;39536;52.198;9.920;2023-08-06T10:28:51;99514.38;;;22.44;100.00
13968;BME280;39536;52.198;9.920;2023-08-06T10:31:18;99519.47;;;22.37;100.00
13968;BME280;39536;52.198;9.920;2023-08-06T10:33:46;99518.63;;;22.54;100.00
13968;BME280;39536;52.198;9.920;2023-08-06T10:36:14;99513.41;;;22.63;100.00
13968;BME280;39536;52.198;9.920;2023-08-06T10:38:44;99515.66;;;22.40;100.00
13968;BME280;39536;52.198;9.920;2023-08-06T10:41:27;99505.22;;;22.56;100.00
13968;BME280;39536;52.198;9.920;2023-08-06T10:44:05;99505.03;;;23.19;100.00
13968;BME280;39536;52.198;9.920;2023-08-06T10:46:31;99512.50;;;23.16;100.00
13968;BME280;39536;52.198;9.920;2023-08-06T10:48:58;99506.69;;;23.72;100.00
13968;BME280;39536;52.198;9.920;2023-08-06T10:51:25;99500.69;;;24.21;100.00
13968;BME280;39536;52.198;9.920;2023-08-06T10:53:52;99491.44;;;24.50;100.00
13968;BME280;39536;52.198;9.920;2023-08-06T10:56:21;99487.44;;;24.54;100.00
13968;BME280;39536;52.198;9.920;2023-08-06T10:58:51;99483.88;;;24.29;100.00
13968;BME280;39536;52.198;9.920;2023-08-06T11:01:18;99480.56;;;24.27;100.00
13968;BME280;39536;52.198;9.920;2023-08-06T11:03:46;99483.75;;;24.30;100.00
13968;BME280;39536;52.198;9.920;2023-08-06T11:06:17;99474.75;;;24.31;100.00
13968;BME280;39536;52.198;9.920;2023-08-06T11:08:48;99474.56;;;24.16;100.00
13968;BME280;39536;52.198;9.920;2023-08-06T11:11:16;99475.22;;;24.10;100.00
13968;BME280;39536;52.198;9.920;2023-08-06T11:13:44;99476.06;;;24.19;100.00
13968;BME280;39536;52.198;9.920;2023-08-06T11:16:13;99475.56;;;24.15;100.00
13968;BME280;39536;52.198;9.920;2023-08-06T11:18:40;99473.38;;;24.11;100.00
13968;BME280;39536;52.198;9.920;2023-08-06T11:21:08;99462.25;;;24.24;100.00
13968;BME280;39536;52.198;9.920;2023-08-06T11:23:35;99464.88;;;24.07;100.00
13968;BME280;39536;52.198;9.920;2023-08-06T11:26:01;99467.56;;;24.07;100.00
13968;BME280;39536;52.198;9.920;2023-08-06T11:28:28;99459.91;;;23.96;100.00
13968;BME280;39536;52.198;9.920;2023-08-06T11:30:55;99461.66;;;23.71;100.00
13968;BME280;39536;52.198;9.920;2023-08-06T11:33:28;99460.75;;;23.62;100.00
13968;BME280;39536;52.198;9.920;2023-08-06T11:35:56;99464.81;;;23.83;100.00
13968;BME280;39536;52.198;9.920;2023-08-06T11:38:24;99457.09;;;24.14;100.00
13968;BME280;39536;52.198;9.920;2023-08-06T11:40:51;99455.59;;;24.11;100.00
13968;BME280;39536;52.198;9.920;2023-08-06T11:43:19;99450.28;;;24.19;100.00
13968;BME280;39536;52.198;9.920;2023-08-06T11:45:46;99454.25;;;24.24;100.00
13968;BME280;39536;52.198;9.920;2023-08-06T11:48:13;99457.16;;;24.63;100.00
13968;BME280;39536;52.198;9.920;2023-08-06T11:50:41;99451.63;;;24.89;100.00
13968;BME280;39536;52.198;9.920;2023-08-06T11:53:12;99444.03;;;24.61;100.00
13968;BME280;39536;52.198;9.920;2023-08-06T11:55:39;99450.00;;;24.72;100.00
13968;BME280;39536;52.198;9.920;2023-08-06T11:58:05;99439.97;;;24.41;100.00
13968;BME280;39536;52.198;9.920;2023-08-06T12:00:32;99438.84;;;24.43;100.00
13968;BME280;39536;52.198;9.920;2023-08-06T12:02:59;99433.19;;;24.63;100.00
13968;BME280;39536;52.198;9.920;2023-08-06T12:05:29;99438.19;;;24.74;100.00
13968;BME280;39536;52.198;9.920;2023-08-06T12:08:00;99427.81;;;24.79;100.00
13968;BME280;39536;52.198;9.920;2023-08-06T12:10:29;99435.25;;;25.25;100.00
13968;BME280;39536;52.198;9.920;2023-08-06T12:12:55;99432.44;;;25.10;97.20
13968;BME280;39536;52.198;9.920;2023-08-06T12:15:23;99426.38;;;25.41;99.46
13968;BME280;39536;52.198;9.920;2023-08-06T12:17:50;99425.63;;;25.94;100.00
13968;BME280;39536;52.198;9.920;2023-08-06T12:20:16;99413.59;;;26.21;90.01
13968;BME280;39536;52.198;9.920;2023-08-06T12:22:43;99410.25;;;26.19;89.10
13968;BME280;39536;52.198;9.920;2023-08-06T12:25:12;99406.72;;;26.27;90.14
13968;BME280;39536;52.198;9.920;2023-08-06T12:27:40;99405.88;;;26.03;88.93
13968;BME280;39536;52.198;9.920;2023-08-06T12:30:08;99410.81;;;25.52;93.29
13968;BME280;39536;52.198;9.920;2023-08-06T12:32:35;99410.19;;;25.82;97.40
13968;BME280;39536;52.198;9.920;2023-08-06T12:35:02;99412.09;;;25.65;95.24
13968;BME280;39536;52.198;9.920;2023-08-06T12:37:29;99405.50;;;24.97;93.75
13968;BME280;39536;52.198;9.920;2023-08-06T12:39:55;99412.41;;;24.58;96.72
13968;BME280;39536;52.198;9.920;2023-08-06T12:42:23;99414.72;;;24.45;96.13
13968;BME280;39536;52.198;9.920;2023-08-06T12:44:51;99412.34;;;24.91;95.99
13968;BME280;39536;52.198;9.920;2023-08-06T12:47:18;99408.13;;;25.21;90.44
13968;BME280;39536;52.198;9.920;2023-08-06T12:49:45;99408.97;;;25.05;94.89
13968;BME280;39536;52.198;9.920;2023-08-06T12:52:11;99416.69;;;24.84;99.49